Time;durP1;ratioP1;P1;durP2;ratioP2;P2;SDS_P1;SDS_P2;PMS_P1;PMS_P2;Temp;Humidity;BMP_temperature;BMP_pressure;BME280_temperature;BME280_humidity;BME280_pressure;Samples;Min_cycle;Max_cycle;Signal;HPM_P1;HPM_P2
2021/06/25 00:00:47;;;;;;;9.27;8.37;;;11.30;99.90;;;;;;4377138;32;20178;-61
2021/06/25 00:03:16;;;;;;;10.30;8.77;;;11.30;99.90;;;;;;4376613;32;20572;-61
2021/06/25 00:05:43;;;;;;;9.63;8.30;;;11.30;99.90;;;;;;4387292;32;20152;-62
2021/06/25 00:08:10;;;;;;;11.30;8.67;;;11.30;99.90;;;;;;4378647;32;20152;-60
2021/06/25 00:10:38;;;;;;;10.60;8.90;;;11.20;99.90;;;;;;4385667;32;20576;-61
2021/06/25 00:13:05;;;;;;;10.90;8.53;;;11.20;99.90;;;;;;4382257;32;20160;-60
2021/06/25 00:15:32;;;;;;;14.27;9.70;;;11.10;99.90;;;;;;4377083;32;20184;-60
2021/06/25 00:18:00;;;;;;;12.37;9.57;;;11.10;99.90;;;;;;4377824;32;20184;-60
2021/06/25 00:20:28;;;;;;;13.03;10.73;;;11.10;99.90;;;;;;4386675;32;20483;-60
2021/06/25 00:22:56;;;;;;;12.50;10.17;;;11.00;99.90;;;;;;4385207;32;20175;-61
2021/06/25 00:25:23;;;;;;;15.33;10.50;;;11.00;99.90;;;;;;4382170;32;20554;-61
2021/06/25 00:27:53;;;;;;;12.77;9.10;;;11.00;99.90;;;;;;4384341;32;20179;-59
2021/06/25 00:30:20;;;;;;;13.43;10.03;;;10.90;99.90;;;;;;4377958;32;20515;-62
2021/06/25 00:32:47;;;;;;;12.13;10.13;;;10.90;99.90;;;;;;4384728;32;20219;-62
2021/06/25 00:35:15;;;;;;;11.40;10.03;;;10.90;99.90;;;;;;4378840;32;20215;-62
2021/06/25 00:37:46;;;;;;;11.97;9.77;;;10.90;99.90;;;;;;4390449;32;20159;-60
2021/06/25 00:40:16;;;;;;;13.80;11.37;;;10.90;99.90;;;;;;4385062;32;20175;-60
2021/06/25 00:42:43;;;;;;;14.37;11.03;;;10.90;99.90;;;;;;4388226;32;20184;-62
2021/06/25 00:45:11;;;;;;;12.80;11.30;;;10.90;99.90;;;;;;4384216;32;20175;-60
2021/06/25 00:47:40;;;;;;;14.40;11.03;;;10.90;99.90;;;;;;4390261;32;20157;-61
2021/06/25 00:50:08;;;;;;;14.30;10.73;;;10.90;99.90;;;;;;4378159;32;20152;-62
2021/06/25 00:52:35;;;;;;;15.60;11.57;;;10.80;99.90;;;;;;4382870;32;20149;-61
2021/06/25 00:55:05;;;;;;;12.83;10.77;;;10.90;99.90;;;;;;4383222;32;20212;-61
2021/06/25 00:57:32;;;;;;;15.67;11.73;;;10.80;99.90;;;;;;4383842;32;20152;-63
2021/06/25 00:59:59;;;;;;;14.70;11.57;;;10.80;99.90;;;;;;4378760;32;20198;-62
2021/06/25 01:02:25;;;;;;;14.43;11.23;;;10.80;99.90;;;;;;4389012;32;20183;-62
2021/06/25 01:04:59;;;;;;;12.87;11.33;;;10.80;99.90;;;;;;4381799;32;20149;-63
2021/06/25 01:07:29;;;;;;;16.57;12.10;;;10.80;99.90;;;;;;4378654;32;20157;-62
2021/06/25 01:09:56;;;;;;;16.10;12.67;;;10.80;99.90;;;;;;4386346;32;20160;-61
2021/06/25 01:12:27;;;;;;;15.43;12.13;;;10.80;99.90;;;;;;4374670;32;20478;-62
2021/06/25 01:14:54;;;;;;;17.30;13.03;;;10.80;99.90;;;;;;4380781;32;20174;-61
2021/06/25 01:17:30;;;;;;;16.07;12.17;;;10.80;99.90;;;;;;4382354;32;20504;-61
2021/06/25 01:19:57;;;;;;;17.03;12.73;;;10.70;99.90;;;;;;4387000;32;20156;-60
2021/06/25 01:22:39;;;;;;;16.93;12.40;;;10.70;99.90;;;;;;4384808;32;20164;-60
2021/06/25 01:25:09;;;;;;;17.33;13.00;;;10.70;99.90;;;;;;4384112;32;20186;-60
2021/06/25 01:27:37;;;;;;;18.60;12.83;;;10.70;99.90;;;;;;4381821;32;20164;-61
2021/06/25 01:30:07;;;;;;;15.93;13.00;;;10.60;99.90;;;;;;4385117;32;20507;-61
2021/06/25 01:32:37;;;;;;;21.13;15.13;;;10.60;99.90;;;;;;4378239;32;20178;-62
2021/06/25 01:35:07;;;;;;;17.93;14.40;;;10.60;99.90;;;;;;4382002;32;20164;-61
2021/06/25 01:37:36;;;;;;;19.23;14.77;;;10.50;99.90;;;;;;4376431;32;20175;-60
2021/06/25 01:40:04;;;;;;;18.53;14.73;;;10.60;99.90;;;;;;4384639;32;20159;-61
2021/06/25 01:42:36;;;;;;;19.20;13.80;;;10.60;99.90;;;;;;4385025;32;20179;-61
2021/06/25 01:45:07;;;;;;;18.43;14.87;;;10.60;99.90;;;;;;4382474;32;20576;-62
2021/06/25 01:47:36;;;;;;;21.87;16.30;;;10.60;99.90;;;;;;4378323;32;20153;-61
2021/06/25 01:50:05;;;;;;;22.67;16.13;;;10.50;99.90;;;;;;4381537;32;20162;-63
2021/06/25 01:52:32;;;;;;;21.83;16.07;;;10.50;99.90;;;;;;4381410;32;20500;-62
2021/06/25 01:55:00;;;;;;;19.97;14.73;;;10.50;99.90;;;;;;4387763;32;20184;-59
2021/06/25 01:57:30;;;;;;;23.23;16.40;;;10.50;99.90;;;;;;4385120;32;20191;-59
2021/06/25 02:00:00;;;;;;;22.17;16.07;;;10.50;99.90;;;;;;4388545;32;20182;-61
2021/06/25 02:02:32;;;;;;;25.07;17.50;;;10.50;99.90;;;;;;4388306;32;20173;-61
2021/06/25 02:04:58;;;;;;;21.47;17.07;;;10.50;99.90;;;;;;4384204;32;20596;-61
2021/06/25 02:07:25;;;;;;;23.00;17.17;;;10.50;99.90;;;;;;4385432;32;20571;-63
2021/06/25 02:09:53;;;;;;;24.27;17.17;;;10.50;99.90;;;;;;4381673;32;20178;-59
2021/06/25 02:12:21;;;;;;;23.27;17.53;;;10.50;99.90;;;;;;4384592;32;20184;-60
2021/06/25 02:14:51;;;;;;;23.30;17.23;;;10.50;99.90;;;;;;4384405;32;20157;-60
2021/06/25 02:17:18;;;;;;;24.47;16.60;;;10.50;99.90;;;;;;4384285;32;20231;-60
2021/06/25 02:19:45;;;;;;;25.47;16.73;;;10.50;99.90;;;;;;4380435;32;20160;-59
2021/06/25 02:22:12;;;;;;;22.10;16.90;;;10.50;99.90;;;;;;4381976;32;20179;-59
2021/06/25 02:24:42;;;;;;;23.40;16.83;;;10.40;99.90;;;;;;4385439;32;20160;-59
2021/06/25 02:27:11;;;;;;;22.40;17.10;;;10.50;99.90;;;;;;4381558;32;20227;-61
2021/06/25 02:29:40;;;;;;;27.43;17.87;;;10.50;99.90;;;;;;4382091;32;20596;-59
2021/06/25 02:32:07;;;;;;;25.23;17.87;;;10.50;99.90;;;;;;4388630;32;20152;-60
2021/06/25 02:34:34;;;;;;;25.17;18.23;;;10.50;99.90;;;;;;4378676;32;20203;-60
2021/06/25 02:37:01;;;;;;;27.30;17.97;;;10.50;99.90;;;;;;4381933;32;20168;-62
2021/06/25 02:39:28;;;;;;;23.23;16.90;;;10.60;99.90;;;;;;4377834;32;20186;-61
2021/06/25 02:42:00;;;;;;;24.80;18.00;;;10.70;99.90;;;;;;4378893;32;20179;-62
2021/06/25 02:44:30;;;;;;;25.77;18.00;;;10.80;99.90;;;;;;4387883;32;20221;-61
2021/06/25 02:46:58;;;;;;;23.37;16.13;;;10.90;99.90;;;;;;4386663;32;20211;-61
2021/06/25 02:49:25;;;;;;;29.43;19.07;;;11.00;99.90;;;;;;4389031;32;20179;-61
2021/06/25 02:51:52;;;;;;;22.50;16.73;;;11.00;99.90;;;;;;4380733;32;20176;-61
2021/06/25 02:54:19;;;;;;;22.80;16.77;;;11.10;99.90;;;;;;4388251;32;20210;-60
2021/06/25 02:56:47;;;;;;;26.87;17.90;;;11.20;99.90;;;;;;4379194;32;20168;-61
2021/06/25 02:59:14;;;;;;;27.10;19.47;;;11.30;99.90;;;;;;4388447;32;20468;-61
2021/06/25 03:01:41;;;;;;;28.93;19.13;;;11.30;99.90;;;;;;4385048;32;20650;-61
2021/06/25 03:04:09;;;;;;;25.70;18.40;;;11.40;99.90;;;;;;4384394;32;20153;-61
2021/06/25 03:06:36;;;;;;;27.77;18.97;;;11.40;99.90;;;;;;4379552;32;20156;-60
2021/06/25 03:09:03;;;;;;;25.13;18.27;;;11.40;99.90;;;;;;4380725;32;20517;-62
2021/06/25 03:11:30;;;;;;;27.67;18.70;;;11.50;99.90;;;;;;4379210;32;20136;-61
2021/06/25 03:13:57;;;;;;;27.00;18.20;;;11.60;99.90;;;;;;4377470;32;20174;-61
2021/06/25 03:16:24;;;;;;;26.10;19.23;;;11.60;99.90;;;;;;4388673;32;20153;-61
2021/06/25 03:18:51;;;;;;;24.73;18.50;;;11.70;99.90;;;;;;4383305;32;20206;-60
2021/06/25 03:21:19;;;;;;;26.20;19.43;;;11.70;99.90;;;;;;4380330;32;20223;-61
2021/06/25 03:23:46;;;;;;;24.90;18.43;;;11.80;99.90;;;;;;4389505;32;20168;-62
2021/06/25 03:26:14;;;;;;;22.17;17.47;;;11.90;99.90;;;;;;4384054;32;20175;-61
2021/06/25 03:28:40;;;;;;;24.77;18.30;;;11.90;99.90;;;;;;4386424;32;20213;-61
2021/06/25 03:31:09;;;;;;;27.43;19.10;;;11.90;99.90;;;;;;4381160;32;20179;-59
2021/06/25 03:33:36;;;;;;;32.93;20.50;;;11.90;99.90;;;;;;4384799;32;20210;-61
2021/06/25 03:36:05;;;;;;;27.17;18.50;;;12.00;99.90;;;;;;4382956;32;20164;-60
2021/06/25 03:38:35;;;;;;;27.33;19.17;;;12.10;99.90;;;;;;4389889;32;20155;-60
2021/06/25 03:41:02;;;;;;;25.67;18.03;;;12.10;99.90;;;;;;4381858;32;20160;-61
2021/06/25 03:43:29;;;;;;;24.60;17.20;;;12.10;99.90;;;;;;4380828;32;20179;-60
2021/06/25 03:45:56;;;;;;;28.07;19.40;;;12.20;99.90;;;;;;4384260;32;20463;-60
2021/06/25 03:48:31;;;;;;;26.77;18.63;;;12.20;99.90;;;;;;4379053;32;20182;-63
2021/06/25 03:50:58;;;;;;;27.87;20.73;;;12.30;99.90;;;;;;4389155;32;20152;-59
2021/06/25 03:53:25;;;;;;;26.40;18.97;;;12.30;99.90;;;;;;4389433;32;20194;-60
2021/06/25 03:56:12;;;;;;;30.63;21.13;;;12.30;99.90;;;;;;4381009;32;20187;-61
2021/06/25 03:58:41;;;;;;;25.00;18.70;;;12.30;99.90;;;;;;4383453;32;20199;-61
2021/06/25 04:01:08;;;;;;;27.10;19.37;;;12.30;99.90;;;;;;4379852;32;20698;-59
2021/06/25 04:03:35;;;;;;;27.03;20.03;;;12.30;99.90;;;;;;4383119;32;20152;-60
2021/06/25 04:06:05;;;;;;;29.07;19.83;;;12.40;99.90;;;;;;4380372;32;20469;-61
2021/06/25 04:08:32;;;;;;;27.97;19.43;;;12.40;99.90;;;;;;4385661;32;20155;-59
2021/06/25 04:11:02;;;;;;;29.13;20.57;;;12.40;99.90;;;;;;4381539;32;20217;-61
2021/06/25 04:13:29;;;;;;;27.03;19.70;;;12.40;99.90;;;;;;4376816;32;20644;-61
2021/06/25 04:16:00;;;;;;;30.20;19.03;;;12.40;99.90;;;;;;4384380;32;20160;-62
2021/06/25 04:18:32;;;;;;;26.83;19.00;;;12.40;99.90;;;;;;4379016;32;20202;-60
2021/06/25 04:21:04;;;;;;;24.83;18.53;;;12.50;99.90;;;;;;4376159;32;20175;-60
2021/06/25 04:23:31;;;;;;;29.27;20.07;;;12.50;99.90;;;;;;4389340;32;20156;-60
2021/06/25 04:26:06;;;;;;;29.67;19.77;;;12.50;99.90;;;;;;4388721;32;20157;-61
2021/06/25 04:28:36;;;;;;;29.20;19.30;;;12.50;99.90;;;;;;4380345;32;20140;-60
2021/06/25 04:31:05;;;;;;;29.53;21.20;;;12.50;99.90;;;;;;4379058;32;20170;-61
2021/06/25 04:33:34;;;;;;;32.20;20.27;;;12.50;99.90;;;;;;4375547;32;20188;-60
2021/06/25 04:36:01;;;;;;;34.00;20.27;;;12.60;99.90;;;;;;4374697;32;20169;-62
2021/06/25 04:38:30;;;;;;;32.93;21.03;;;12.60;99.90;;;;;;4388301;32;20164;-61
2021/06/25 04:41:02;;;;;;;27.97;19.27;;;12.60;99.90;;;;;;4387805;32;20156;-61
2021/06/25 04:43:31;;;;;;;25.87;19.63;;;12.70;99.90;;;;;;4380851;32;20211;-59
2021/06/25 04:46:00;;;;;;;31.13;20.37;;;12.70;99.90;;;;;;4377956;32;20161;-61
2021/06/25 04:48:29;;;;;;;29.23;20.20;;;12.70;99.90;;;;;;4390103;32;20182;-59
2021/06/25 04:51:00;;;;;;;34.53;22.37;;;12.70;99.90;;;;;;4385156;32;20219;-61
2021/06/25 04:53:27;;;;;;;29.70;20.93;;;12.80;99.90;;;;;;4384130;32;20495;-60
2021/06/25 04:55:54;;;;;;;33.03;21.70;;;12.80;99.90;;;;;;4384018;32;20231;-60
2021/06/25 04:58:22;;;;;;;33.10;22.53;;;12.80;99.90;;;;;;4375984;32;20156;-61
2021/06/25 05:00:57;;;;;;;31.53;22.03;;;12.80;99.90;;;;;;4380488;32;20601;-61
2021/06/25 05:03:24;;;;;;;27.77;20.70;;;12.90;99.90;;;;;;4389929;32;20499;-61
2021/06/25 05:05:51;;;;;;;27.57;20.13;;;13.00;99.90;;;;;;4384462;32;20141;-61
2021/06/25 05:08:18;;;;;;;32.73;21.23;;;13.00;99.90;;;;;;4382404;32;20179;-61
2021/06/25 05:10:46;;;;;;;29.93;21.20;;;13.00;99.90;;;;;;4376631;32;20148;-61
2021/06/25 05:13:17;;;;;;;29.23;20.43;;;13.10;99.90;;;;;;4395316;32;20199;-60
2021/06/25 05:15:44;;;;;;;28.80;20.07;;;13.20;99.90;;;;;;4389796;32;20212;-60
2021/06/25 05:18:14;;;;;;;32.77;22.27;;;13.20;99.90;;;;;;4379239;32;20164;-60
2021/06/25 05:20:41;;;;;;;30.70;22.03;;;13.30;99.90;;;;;;4378785;32;20227;-61
2021/06/25 05:23:09;;;;;;;26.43;20.47;;;13.40;99.90;;;;;;4380212;32;20180;-61
2021/06/25 05:25:36;;;;;;;30.17;20.80;;;13.50;99.90;;;;;;4382072;32;20156;-62
2021/06/25 05:28:03;;;;;;;30.20;20.20;;;13.60;99.90;;;;;;4379466;32;20187;-62
2021/06/25 05:30:31;;;;;;;29.20;20.77;;;13.70;99.90;;;;;;4386492;32;20179;-61
2021/06/25 05:32:58;;;;;;;28.40;20.27;;;13.80;99.90;;;;;;4382456;32;20182;-63
2021/06/25 05:35:30;;;;;;;28.03;19.83;;;13.90;99.90;;;;;;4386308;32;20192;-62
2021/06/25 05:38:02;;;;;;;29.30;20.90;;;14.10;99.90;;;;;;4386800;32;20151;-62
2021/06/25 05:40:32;;;;;;;30.43;19.70;;;14.20;99.90;;;;;;4386283;32;20157;-62
2021/06/25 05:42:59;;;;;;;28.30;19.60;;;14.30;99.90;;;;;;4380175;32;20153;-61
2021/06/25 05:45:29;;;;;;;23.67;18.33;;;14.50;99.90;;;;;;4383011;32;20193;-62
2021/06/25 05:47:56;;;;;;;24.83;18.33;;;14.70;99.90;;;;;;4379839;32;20205;-62
2021/06/25 05:50:31;;;;;;;26.40;19.17;;;14.80;99.90;;;;;;4381095;32;20661;-60
2021/06/25 05:52:58;;;;;;;23.77;18.33;;;14.90;99.90;;;;;;4383475;32;20156;-62
2021/06/25 05:55:26;;;;;;;26.73;19.47;;;15.00;99.90;;;;;;4382710;32;20271;-62
2021/06/25 05:57:55;;;;;;;23.20;18.67;;;15.00;99.90;;;;;;4386771;32;20215;-63
2021/06/25 06:00:25;;;;;;;26.03;19.20;;;15.20;99.90;;;;;;4386792;32;20238;-61
2021/06/25 06:02:55;;;;;;;27.77;19.17;;;15.40;99.90;;;;;;4384039;32;20207;-60
2021/06/25 06:05:26;;;;;;;28.90;18.77;;;15.50;99.90;;;;;;4381518;32;20152;-60
2021/06/25 06:07:54;;;;;;;27.93;19.03;;;15.50;99.90;;;;;;4384012;32;20197;-60
2021/06/25 06:10:21;;;;;;;23.87;17.80;;;15.30;99.90;;;;;;4382738;32;20152;-61
2021/06/25 06:12:48;;;;;;;24.00;17.77;;;15.30;99.90;;;;;;4382316;32;20230;-61
2021/06/25 06:15:17;;;;;;;23.83;18.07;;;15.60;99.90;;;;;;4387727;32;20160;-62
2021/06/25 06:17:48;;;;;;;21.30;17.47;;;15.80;99.90;;;;;;4389661;32;20206;-60
2021/06/25 06:20:22;;;;;;;27.90;18.70;;;16.20;99.90;;;;;;4384239;32;20155;-61
2021/06/25 06:31:21;;;;;;;27.67;19.27;;;17.10;99.90;;;;;;4385265;32;20194;-60
2021/06/25 06:33:53;;;;;;;26.30;19.03;;;17.20;99.90;;;;;;4385173;32;20211;-60
2021/06/25 06:36:26;;;;;;;23.60;18.97;;;17.00;99.90;;;;;;4383798;32;20616;-60
2021/06/25 06:38:54;;;;;;;27.63;18.90;;;16.80;99.90;;;;;;4380836;32;20239;-60
2021/06/25 06:41:30;;;;;;;22.37;17.73;;;16.70;99.90;;;;;;4385038;32;20171;-60
2021/06/25 06:43:59;;;;;;;23.97;17.53;;;16.80;99.90;;;;;;4382842;32;20163;-61
2021/06/25 06:46:47;;;;;;;24.77;19.07;;;16.90;99.90;;;;;;4381075;32;20215;-62
2021/06/25 06:49:19;;;;;;;26.07;19.77;;;16.90;99.90;;;;;;4382517;32;20170;-62
2021/06/25 06:51:52;;;;;;;28.00;19.80;;;17.00;99.90;;;;;;4385118;32;20230;-61
2021/06/25 06:54:20;;;;;;;30.57;21.47;;;17.00;99.90;;;;;;4383453;32;20160;-62
2021/06/25 06:56:47;;;;;;;30.57;20.97;;;17.00;99.90;;;;;;4385130;32;20175;-60
2021/06/25 06:59:14;;;;;;;29.30;21.27;;;17.10;99.90;;;;;;4382117;32;20194;-60
2021/06/25 07:01:43;;;;;;;27.23;21.17;;;17.10;99.90;;;;;;4382700;32;20156;-61
2021/06/25 07:04:19;;;;;;;30.53;21.17;;;17.10;99.90;;;;;;4384529;32;20231;-60
2021/06/25 07:06:45;;;;;;;32.07;23.07;;;17.20;99.90;;;;;;4377041;32;20165;-60
2021/06/25 07:09:12;;;;;;;29.00;21.47;;;17.20;99.90;;;;;;4381710;32;20450;-60
2021/06/25 07:11:42;;;;;;;29.10;20.67;;;17.20;99.90;;;;;;4382720;32;20235;-63
2021/06/25 07:14:08;;;;;;;33.13;22.23;;;17.20;99.90;;;;;;4383059;32;20206;-61
2021/06/25 07:16:35;;;;;;;33.17;22.60;;;17.20;99.90;;;;;;4381222;32;20183;-61
2021/06/25 07:19:02;;;;;;;31.53;23.80;;;17.20;99.90;;;;;;4381421;32;20495;-61
2021/06/25 07:21:29;;;;;;;32.73;23.80;;;17.00;99.90;;;;;;4380462;32;20238;-60
2021/06/25 07:23:56;;;;;;;32.97;24.03;;;17.10;99.90;;;;;;4383121;32;20533;-60
2021/06/25 07:26:23;;;;;;;38.47;26.63;;;17.00;99.90;;;;;;4380334;32;20536;-61
2021/06/25 07:28:51;;;;;;;35.93;25.57;;;17.00;99.90;;;;;;4379180;32;20172;-61
2021/06/25 07:31:18;;;;;;;32.53;24.33;;;16.90;99.90;;;;;;4378167;32;20160;-61
2021/06/25 07:33:44;;;;;;;35.37;26.33;;;16.90;99.90;;;;;;4384130;32;20210;-60
2021/06/25 07:36:11;;;;;;;37.60;26.47;;;16.80;99.90;;;;;;4380736;32;20184;-61
2021/06/25 07:38:38;;;;;;;40.80;28.07;;;16.70;99.90;;;;;;4380481;32;20160;-61
2021/06/25 07:41:05;;;;;;;37.33;27.00;;;16.60;99.90;;;;;;4381686;32;20175;-60
2021/06/25 07:43:32;;;;;;;43.23;27.70;;;16.60;99.90;;;;;;4384507;32;20183;-59
2021/06/25 07:46:00;;;;;;;42.40;28.00;;;16.70;99.90;;;;;;4383268;32;20194;-59
2021/06/25 07:48:30;;;;;;;36.73;26.50;;;16.70;99.90;;;;;;4385555;32;20290;-61
2021/06/25 07:50:57;;;;;;;41.93;27.23;;;16.70;99.90;;;;;;4383690;32;20160;-61
2021/06/25 07:53:24;;;;;;;41.23;27.27;;;16.80;99.90;;;;;;4385580;32;20163;-59
2021/06/25 07:55:50;;;;;;;39.93;28.30;;;16.90;99.90;;;;;;4377930;32;20148;-59
2021/06/25 07:58:18;;;;;;;36.87;26.87;;;17.00;99.90;;;;;;4376843;32;20183;-60
2021/06/25 08:00:45;;;;;;;38.97;26.73;;;17.20;99.90;;;;;;4376132;32;20223;-59
2021/06/25 08:03:13;;;;;;;41.93;29.10;;;17.20;99.90;;;;;;4380266;32;20148;-59
2021/06/25 08:05:40;;;;;;;36.73;26.97;;;17.30;99.90;;;;;;4392488;32;20508;-59
2021/06/25 08:08:07;;;;;;;36.90;24.90;;;17.70;99.90;;;;;;4390904;32;20175;-59
2021/06/25 08:10:35;;;;;;;40.50;27.37;;;17.90;99.90;;;;;;4390939;32;20166;-59
2021/06/25 08:13:02;;;;;;;37.00;26.90;;;18.10;99.90;;;;;;4390753;32;20171;-61
2021/06/25 08:15:29;;;;;;;37.93;26.03;;;18.30;99.90;;;;;;4391276;32;20179;-61
2021/06/25 08:17:56;;;;;;;38.10;25.70;;;18.60;99.90;;;;;;4391049;32;20473;-60
2021/06/25 08:20:24;;;;;;;33.90;25.40;;;19.10;99.90;;;;;;4390741;32;20160;-59
2021/06/25 08:22:51;;;;;;;34.00;24.60;;;19.40;99.90;;;;;;4381581;32;20148;-60
2021/06/25 08:25:18;;;;;;;34.47;25.77;;;19.60;99.90;;;;;;4380029;32;20173;-60
2021/06/25 08:27:45;;;;;;;34.23;24.73;;;19.60;99.90;;;;;;4390831;32;20155;-60
2021/06/25 08:30:14;;;;;;;35.20;24.87;;;20.20;99.90;;;;;;4389496;32;20156;-61
2021/06/25 08:32:42;;;;;;;33.20;23.40;;;21.00;98.70;;;;;;4391531;32;20584;-60
2021/06/25 08:35:10;;;;;;;30.33;23.73;;;22.20;96.90;;;;;;4388994;32;20601;-59
2021/06/25 08:37:38;;;;;;;32.00;24.03;;;22.70;95.60;;;;;;4391106;32;20611;-60
2021/06/25 08:40:08;;;;;;;32.93;22.67;;;23.30;95.10;;;;;;4390986;32;20175;-61
2021/06/25 08:42:36;;;;;;;30.90;22.03;;;25.00;93.10;;;;;;4391551;32;20188;-60
2021/06/25 08:45:04;;;;;;;32.13;21.87;;;27.00;88.20;;;;;;4389086;32;20164;-61
2021/06/25 08:47:32;;;;;;;29.00;20.87;;;27.80;84.40;;;;;;4392126;32;20148;-60
2021/06/25 08:50:00;;;;;;;30.40;21.67;;;27.60;80.90;;;;;;4387479;32;20153;-60
2021/06/25 08:52:27;;;;;;;36.67;23.87;;;26.20;82.90;;;;;;4375457;32;20183;-60
2021/06/25 08:54:56;;;;;;;30.83;21.00;;;24.60;86.00;;;;;;4375918;32;20180;-61
2021/06/25 08:57:22;;;;;;;27.63;21.13;;;23.40;90.00;;;;;;4376304;32;20144;-60
2021/06/25 08:59:50;;;;;;;29.30;21.47;;;22.80;91.30;;;;;;4390933;32;20178;-61
2021/06/25 09:02:18;;;;;;;32.00;23.60;;;22.60;92.40;;;;;;4390431;32;20216;-60
2021/06/25 09:04:49;;;;;;;28.33;22.30;;;22.20;93.00;;;;;;4381647;32;20627;-58
2021/06/25 09:07:16;;;;;;;35.63;24.17;;;22.20;93.70;;;;;;4376519;32;20152;-62
2021/06/25 09:09:45;;;;;;;31.03;22.53;;;22.50;92.90;;;;;;4387779;32;20156;-60
2021/06/25 09:12:21;;;;;;;33.43;23.17;;;22.20;93.20;;;;;;4391158;32;20155;-60
2021/06/25 09:15:05;;;;;;;34.60;24.47;;;22.40;93.40;;;;;;4389113;32;20172;-59
2021/06/25 09:17:32;;;;;;;29.93;22.77;;;22.80;92.60;;;;;;4378316;32;20187;-60
2021/06/25 09:20:00;;;;;;;33.50;23.47;;;22.90;92.80;;;;;;4383423;32;20156;-60
2021/06/25 09:22:27;;;;;;;33.67;24.10;;;22.80;93.10;;;;;;4390286;32;20608;-62
2021/06/25 09:25:02;;;;;;;33.17;23.73;;;23.00;93.10;;;;;;4387706;32;20152;-60
2021/06/25 09:27:31;;;;;;;29.57;21.63;;;23.10;92.70;;;;;;4390244;32;20230;-62
2021/06/25 09:29:58;;;;;;;34.67;23.53;;;23.10;92.60;;;;;;4377788;32;20156;-63
2021/06/25 09:32:36;;;;;;;36.17;22.77;;;22.90;92.60;;;;;;4381736;32;20191;-61
2021/06/25 09:35:14;;;;;;;33.00;23.47;;;22.70;93.00;;;;;;4385280;32;20157;-61
2021/06/25 09:37:43;;;;;;;30.70;23.33;;;22.80;92.90;;;;;;4383142;32;20181;-60
2021/06/25 09:40:13;;;;;;;29.27;22.60;;;22.50;93.40;;;;;;4391164;32;20160;-60
2021/06/25 09:42:43;;;;;;;33.30;22.87;;;23.00;93.40;;;;;;4378386;32;20478;-60
2021/06/25 09:45:12;;;;;;;27.27;21.53;;;23.40;92.80;;;;;;4377671;32;20589;-61
2021/06/25 09:47:40;;;;;;;29.70;21.73;;;24.40;92.30;;;;;;4375118;32;20572;-60
2021/06/25 09:50:09;;;;;;;31.23;23.60;;;25.40;90.60;;;;;;4374895;32;20156;-61
2021/06/25 09:52:59;;;;;;;29.53;22.40;;;26.10;89.30;;;;;;4375079;32;20191;-63
2021/06/25 09:55:28;;;;;;;31.70;24.00;;;26.20;86.30;;;;;;4375140;32;20195;-61
2021/06/25 09:58:23;;;;;;;36.37;24.63;;;26.60;86.30;;;;;;4375417;32;20607;-61
2021/06/25 10:03:43;;;;;;;34.07;25.87;;;25.60;88.10;;;;;;4375976;32;20540;-62
2021/06/25 10:06:12;;;;;;;30.20;23.73;;;25.20;89.40;;;;;;4375098;32;20592;-61
2021/06/25 10:08:39;;;;;;;30.63;23.77;;;24.90;90.00;;;;;;4375004;32;20145;-62
2021/06/25 10:11:07;;;;;;;31.52;24.58;;;25.10;90.00;;;;;;4382921;32;20176;-61
2021/06/25 10:13:37;;;;;;;30.60;23.70;;;25.20;89.20;;;;;;4378635;32;20560;-61
2021/06/25 10:16:05;;;;;;;34.03;24.67;;;24.80;88.90;;;;;;4381832;32;20167;-61
2021/06/25 10:18:38;;;;;;;30.58;24.33;;;24.60;90.20;;;;;;4392764;32;20590;-61
2021/06/25 10:21:06;;;;;;;30.50;23.53;;;24.50;90.70;;;;;;4392697;32;20167;-60
2021/06/25 10:23:35;;;;;;;38.23;28.17;;;24.20;91.00;;;;;;4392623;32;20172;-60
2021/06/25 10:26:06;;;;;;;31.00;23.90;;;24.30;91.00;;;;;;4380692;32;20635;-60
2021/06/25 10:28:34;;;;;;;28.67;22.77;;;24.70;90.80;;;;;;4389831;32;20155;-61
2021/06/25 10:31:03;;;;;;;32.87;24.63;;;24.70;90.40;;;;;;4409381;32;20144;-61
2021/06/25 10:33:30;;;;;;;32.30;25.40;;;24.40;90.80;;;;;;4407701;32;20473;-62
2021/06/25 10:35:59;;;;;;;37.20;24.77;;;24.20;91.40;;;;;;4407367;32;20164;-60
2021/06/25 10:38:27;;;;;;;29.50;22.80;;;23.90;92.00;;;;;;4407622;32;20174;-62
2021/06/25 10:40:56;;;;;;;35.20;25.07;;;23.30;92.30;;;;;;4408095;32;20140;-61
2021/06/25 10:43:48;;;;;;;28.70;23.23;;;22.70;93.40;;;;;;4407268;32;20151;-60
2021/06/25 10:46:34;;;;;;;36.40;26.83;;;22.30;94.30;;;;;;4408151;32;20537;-60
2021/06/25 10:49:02;;;;;;;32.57;25.77;;;21.70;94.90;;;;;;4407325;32;21230;-61
2021/06/25 10:51:32;;;;;;;36.27;24.57;;;21.40;95.60;;;;;;4407258;32;20152;-61
2021/06/25 10:54:15;;;;;;;37.43;26.33;;;21.30;96.30;;;;;;4407331;32;20174;-60
2021/06/25 10:56:44;;;;;;;34.60;25.67;;;21.30;96.70;;;;;;4407279;32;20147;-59
2021/06/25 10:59:22;;;;;;;36.77;25.90;;;21.30;96.80;;;;;;4407118;32;20598;-61
2021/06/25 11:01:52;;;;;;;31.83;25.90;;;21.50;96.60;;;;;;4407652;32;20198;-60
2021/06/25 11:04:36;;;;;;;28.63;23.47;;;21.50;96.30;;;;;;4405435;32;20163;-61
2021/06/25 11:07:06;;;;;;;33.80;23.03;;;21.50;96.80;;;;;;4390658;32;20192;-61
2021/06/25 11:10:02;;;;;;;32.70;24.60;;;21.50;96.80;;;;;;4392029;32;20148;-61
2021/06/25 11:12:31;;;;;;;32.03;22.30;;;21.60;96.80;;;;;;4391879;32;20163;-60
2021/06/25 11:15:29;;;;;;;31.53;22.37;;;21.50;97.30;;;;;;4391529;32;20215;-61
2021/06/25 11:17:58;;;;;;;26.73;20.47;;;21.50;97.70;;;;;;4385886;32;20601;-61
2021/06/25 11:20:30;;;;;;;31.00;20.47;;;21.80;97.60;;;;;;4391806;32;20178;-60
2021/06/25 11:23:05;;;;;;;31.37;23.63;;;22.10;97.20;;;;;;4391641;32;20148;-60
2021/06/25 11:25:42;;;;;;;31.37;22.23;;;22.30;96.80;;;;;;4391587;32;20170;-62
2021/06/25 11:28:27;;;;;;;32.10;23.33;;;22.40;96.20;;;;;;4386512;32;20223;-61
2021/06/25 11:31:29;;;;;;;31.30;23.60;;;22.40;96.30;;;;;;4332429;33;20169;-60
2021/06/25 11:34:06;;;;;;;30.77;23.20;;;22.20;96.30;;;;;;4321513;32;1677227;-62
2021/06/25 11:36:37;;;;;;;30.43;21.77;;;22.10;96.60;;;;;;4390120;32;20187;-61
2021/06/25 11:39:14;;;;;;;31.50;24.37;;;22.30;96.60;;;;;;4388622;32;20581;-61
2021/06/25 11:41:47;;;;;;;30.73;21.60;;;22.40;96.50;;;;;;4384036;32;20237;-61
2021/06/25 11:44:16;;;;;;;34.73;24.70;;;22.50;96.40;;;;;;4376691;32;20589;-61
2021/06/25 11:46:51;;;;;;;30.67;23.00;;;22.60;96.20;;;;;;4376431;32;20152;-61
2021/06/25 11:49:19;;;;;;;31.10;23.50;;;22.30;95.80;;;;;;4389710;32;20503;-61
2021/06/25 11:51:47;;;;;;;33.47;23.07;;;22.30;96.40;;;;;;4386784;32;20360;-62
2021/06/25 11:54:19;;;;;;;28.63;23.63;;;22.30;96.50;;;;;;4378052;32;20153;-62
2021/06/25 11:56:48;;;;;;;30.73;23.30;;;22.20;96.50;;;;;;4379470;32;20188;-62
2021/06/25 11:59:16;;;;;;;29.43;23.20;;;22.10;96.50;;;;;;4377618;32;20469;-61
2021/06/25 12:01:55;;;;;;;33.00;23.50;;;21.90;96.90;;;;;;4382534;32;20183;-61
2021/06/25 12:04:41;;;;;;;28.80;23.40;;;21.70;97.10;;;;;;4382093;32;20160;-62
2021/06/25 12:07:10;;;;;;;26.60;22.47;;;21.50;97.50;;;;;;4383458;32;20581;-60
2021/06/25 12:09:56;;;;;;;30.07;22.80;;;21.10;97.90;;;;;;4381746;32;20608;-60
2021/06/25 12:12:26;;;;;;;30.03;22.20;;;20.90;98.60;;;;;;4383161;32;20152;-62
2021/06/25 12:14:55;;;;;;;31.60;22.63;;;20.70;99.20;;;;;;4383240;32;20156;-59
2021/06/25 12:17:24;;;;;;;31.13;22.80;;;20.50;99.80;;;;;;4383809;32;20184;-61
2021/06/25 12:20:08;;;;;;;30.50;24.27;;;20.40;99.90;;;;;;4379187;32;20161;-61
2021/06/25 12:22:47;;;;;;;34.63;23.20;;;20.10;99.90;;;;;;4378048;32;20179;-61
2021/06/25 12:25:15;;;;;;;36.47;25.60;;;19.80;99.90;;;;;;4383349;32;20172;-60
2021/06/25 12:27:42;;;;;;;35.20;26.07;;;19.50;99.90;;;;;;4377507;32;20168;-60
2021/06/25 12:30:14;;;;;;;35.13;25.37;;;19.30;99.90;;;;;;4375520;32;20157;-59
2021/06/25 12:32:41;;;;;;;36.03;24.57;;;19.20;99.90;;;;;;4383262;32;20179;-61
2021/06/25 12:35:13;;;;;;;40.27;26.73;;;19.20;99.90;;;;;;4383454;32;20211;-60
2021/06/25 12:37:50;;;;;;;44.20;30.23;;;19.10;99.90;;;;;;4382536;32;20160;-60
2021/06/25 12:40:46;;;;;;;44.33;28.23;;;18.70;99.90;;;;;;4386170;32;20219;-60
2021/06/25 12:43:15;;;;;;;42.97;29.00;;;18.30;99.90;;;;;;4338122;33;20236;-60
2021/06/25 12:45:45;;;;;;;45.90;31.43;;;18.20;99.90;;;;;;4338138;32;21114;-59
2021/06/25 12:48:14;;;;;;;43.37;29.17;;;18.20;99.90;;;;;;4336592;33;20182;-60
2021/06/25 12:50:43;;;;;;;44.50;28.27;;;18.20;99.90;;;;;;4337579;33;20616;-61
2021/06/25 12:53:15;;;;;;;40.23;28.47;;;18.20;99.90;;;;;;4332699;33;20195;-60